Bookmark and Share
Track history (hours):
 

Chantaco

Last reported at 2014-Apr-16 23:04 UTC. Time now 2014-Apr-17 03:59 UTC.
Position N 54°04' E 004°48'.

Length 143 m; draft 8.4 m.

Type: Tanker. MMSI: 228330700.

NotesDate/timePositionNaut miles runAvg speedWind from/ knotsBaromVisibWave heightAir tempDewpointWater temp
2014-Apr-16 23:04N 54°04' E 004°48'17313.5
2014-Apr-16 10:11N 51°35' E 002°22'811.3
2014-Apr-16 09:28N 51°28' E 002°14'1311.2
2014-Apr-16 08:20N 51°16' E 002°07'810.5
2014-Apr-16 07:34N 51°11' E 001°57'1110.4
2014-Apr-16 06:30N 51°04' E 001°44'1010.9
2014-Apr-16 05:33N 50°56' E 001°33'3612.0
2014-Apr-16 02:33N 50°28' E 000°58'1412.3
2014-Apr-16 01:27N 50°18' E 000°43'5113.0
2014-Apr-15 21:32N 49°38' W 000°05'1110.9
2014-Apr-15 20:33N 49°29' E 000°05'3 3.4
2014-Apr-15 19:33N 49°29' E 000°10'1 0.5
2014-Apr-15 18:21N 49°29' E 000°11'0 0.0
2014-Apr-15 17:27N 49°29' E 000°11'0 0.0
2014-Apr-15 16:30N 49°29' E 000°11'0 0.0
2014-Apr-15 15:30N 49°29' E 000°11'0 0.0
2014-Apr-15 14:33N 49°29' E 000°11'0 0.0
2014-Apr-15 12:33N 49°29' E 000°11'0 0.0
2014-Apr-15 11:30N 49°29' E 000°11'0 0.0
2014-Apr-15 10:30N 49°29' E 000°11'0 0.0
2014-Apr-15 09:33N 49°29' E 000°11'0 0.0
2014-Apr-15 08:30N 49°29' E 000°11'0 0.0
2014-Apr-15 07:33N 49°29' E 000°11'0 0.0
2014-Apr-15 06:30N 49°29' E 000°11'0 0.0
2014-Apr-15 05:33N 49°29' E 000°11'0 0.0
2014-Apr-15 03:33N 49°29' E 000°11'0 0.0
2014-Apr-15 02:33N 49°29' E 000°11'0 0.0
2014-Apr-15 01:33N 49°29' E 000°11'0 0.0
2014-Apr-15 00:33N 49°29' E 000°11'0 0.0
2014-Apr-14 23:33N 49°29' E 000°11'0 0.0
2014-Apr-14 22:33N 49°29' E 000°11'0 0.0
2014-Apr-14 21:33N 49°29' E 000°11'0 0.0
2014-Apr-14 20:33N 49°29' E 000°11'0 0.0
2014-Apr-14 19:33N 49°29' E 000°11'0 0.0
2014-Apr-14 18:32N 49°29' E 000°11'0 0.0
2014-Apr-14 17:32N 49°29' E 000°11'0 0.0
2014-Apr-14 16:32N 49°29' E 000°11'0 0.0
2014-Apr-14 15:32N 49°29' E 000°11'0 0.0
2014-Apr-14 14:32N 49°29' E 000°11'0 0.0
2014-Apr-14 13:32N 49°29' E 000°11'0 0.0
2014-Apr-14 11:32N 49°29' E 000°11'0 0.0
2014-Apr-14 10:32N 49°29' E 000°11'0 0.4
2014-Apr-14 09:34N 49°29' E 000°11'2 1.9
2014-Apr-14 08:33N 49°28' E 000°08'6 3.0
2014-Apr-14 06:31N 49°29' W 000°02'0 0.0
2014-Apr-13 22:31N 49°29' W 000°02'0 0.0
2014-Apr-13 21:31N 49°29' W 000°02'0 0.1
2014-Apr-13 20:33N 49°29' W 000°02'1211.8
2014-Apr-13 19:32N 49°41' W 000°05'1512.7
2014-Apr-13 18:22N 49°54' E 000°08'1314.2
2014-Apr-13 17:29N 50°05' E 000°16'1314.4
2014-Apr-13 16:33N 50°16' E 000°27'1814.4
2014-Apr-13 15:19N 50°33' E 000°38'1215.3
2014-Apr-13 14:33N 50°41' E 000°51'1514.8
2014-Apr-13 13:33N 50°50' E 001°09'1413.6
2014-Apr-13 12:33N 50°60' E 001°25'1212.5
2014-Apr-13 11:33N 51°09' E 001°38'1312.6
2014-Apr-13 10:33N 51°19' E 001°50'1514.2
2014-Apr-13 09:32N 51°32' E 002°02'48013.7
2014-Apr-11 22:33N 57°57' E 010°18'1414.2
2014-Apr-11 21:33N 58°04' E 010°41'1514.4
2014-Apr-11 20:33N 58°12' E 011°04'8 0.2
2014-Apr-10 06:22N 58°17' E 011°17'6 3.3
2014-Apr-10 04:31N 58°11' E 011°11'0 0.1
2014-Apr-10 03:31N 58°11' E 011°11'0 0.0
2014-Apr-10 02:22N 58°11' E 011°11'0 0.0
2014-Apr-10 01:22N 58°11' E 011°11'0 0.0
2014-Apr-10 00:28N 58°11' E 011°11'0 0.0
2014-Apr-09 23:31N 58°11' E 011°11'0 0.0
2014-Apr-09 22:25N 58°11' E 011°11'0 0.0
2014-Apr-09 21:19N 58°11' E 011°11'0 0.0
2014-Apr-09 20:25N 58°11' E 011°11'0 0.0
2014-Apr-09 19:22N 58°11' E 011°11'0 0.1
2014-Apr-09 18:07N 58°11' E 011°11'0 0.1
2014-Apr-09 17:19N 58°11' E 011°11'0 0.1
2014-Apr-09 15:12N 58°11' E 011°12'0 0.0
2014-Apr-09 14:30N 58°11' E 011°12'0 0.0
2014-Apr-09 13:33N 58°11' E 011°12'0 0.0
2014-Apr-09 12:21N 58°11' E 011°12'0 0.0
2014-Apr-09 11:12N 58°11' E 011°12'0 0.0
2014-Apr-09 03:33N 58°11' E 011°11'0 0.0
2014-Apr-09 02:24N 58°11' E 011°11'0 0.0
2014-Apr-09 01:33N 58°11' E 011°12'0 0.0
2014-Apr-09 00:33N 58°11' E 011°12'0 0.0
2014-Apr-08 23:30N 58°11' E 011°12'0 0.0
2014-Apr-08 22:33N 58°11' E 011°12'0 0.0
2014-Apr-08 21:30N 58°11' E 011°12'0 0.0
2014-Apr-08 10:18N 58°11' E 011°11'0 0.0
2014-Apr-08 09:30N 58°11' E 011°11'0 0.0
2014-Apr-08 08:30N 58°11' E 011°11'0 0.0
2014-Apr-08 07:33N 58°11' E 011°11'0 0.0
2014-Apr-08 06:33N 58°11' E 011°11'0 0.0
2014-Apr-08 05:15N 58°11' E 011°11'0 0.1
2014-Apr-08 04:27N 58°11' E 011°11'0 0.0
2014-Apr-08 03:33N 58°11' E 011°11'0 0.0
2014-Apr-08 02:29N 58°11' E 011°12'0 0.0
2014-Apr-07 20:11N 58°11' E 011°12'0 0.0
2014-Apr-07 19:29N 58°11' E 011°12'0 0.0
2014-Apr-07 17:29N 58°11' E 011°11'0 0.0
2014-Apr-07 16:29N 58°11' E 011°12'0 0.0
2014-Apr-07 06:11N 58°11' E 011°11'0 0.0
2014-Apr-07 05:05N 58°11' E 011°11'0 0.1
2014-Apr-07 04:32N 58°11' E 011°11'0 0.0
2014-Apr-07 03:29N 58°11' E 011°11'  

Dump ship's entire track history

sailing weather and tide predictions

Chantaco — FMLM — position and weather